sensor_id;sensor_type;location;lat;lon;timestamp;P1;durP1;ratioP1;P2;durP2;ratioP2
6979;SDS011;3530;52.832;10.680;2022-12-07T00:00:07;13.60;;;8.98;;
6979;SDS011;3530;52.832;10.680;2022-12-07T00:02:54;14.73;;;7.55;;
6979;SDS011;3530;52.832;10.680;2022-12-07T00:05:39;10.15;;;7.05;;
6979;SDS011;3530;52.832;10.680;2022-12-07T00:08:25;10.77;;;8.15;;
6979;SDS011;3530;52.832;10.680;2022-12-07T00:11:12;11.38;;;8.32;;
6979;SDS011;3530;52.832;10.680;2022-12-07T00:14:03;11.32;;;7.25;;
6979;SDS011;3530;52.832;10.680;2022-12-07T00:16:51;12.30;;;8.48;;
6979;SDS011;3530;52.832;10.680;2022-12-07T00:19:37;9.55;;;7.57;;
6979;SDS011;3530;52.832;10.680;2022-12-07T00:22:23;8.43;;;7.35;;
6979;SDS011;3530;52.832;10.680;2022-12-07T00:25:08;11.52;;;8.27;;
6979;SDS011;3530;52.832;10.680;2022-12-07T00:27:54;11.95;;;7.82;;
6979;SDS011;3530;52.832;10.680;2022-12-07T00:30:42;12.05;;;8.48;;
6979;SDS011;3530;52.832;10.680;2022-12-07T00:33:28;10.48;;;7.72;;
6979;SDS011;3530;52.832;10.680;2022-12-07T00:36:15;13.20;;;7.43;;
6979;SDS011;3530;52.832;10.680;2022-12-07T00:39:02;11.55;;;8.77;;
6979;SDS011;3530;52.832;10.680;2022-12-07T00:41:48;10.05;;;7.95;;
6979;SDS011;3530;52.832;10.680;2022-12-07T00:44:33;10.55;;;7.53;;
6979;SDS011;3530;52.832;10.680;2022-12-07T00:47:19;9.48;;;6.70;;
6979;SDS011;3530;52.832;10.680;2022-12-07T00:50:05;11.82;;;8.10;;
6979;SDS011;3530;52.832;10.680;2022-12-07T00:52:51;11.25;;;7.95;;
6979;SDS011;3530;52.832;10.680;2022-12-07T00:55:37;12.30;;;7.50;;
6979;SDS011;3530;52.832;10.680;2022-12-07T00:58:23;10.32;;;6.72;;
6979;SDS011;3530;52.832;10.680;2022-12-07T01:01:09;11.68;;;7.30;;
6979;SDS011;3530;52.832;10.680;2022-12-07T01:03:55;10.80;;;8.00;;
6979;SDS011;3530;52.832;10.680;2022-12-07T01:06:41;13.55;;;8.57;;
6979;SDS011;3530;52.832;10.680;2022-12-07T01:09:26;10.55;;;6.53;;
6979;SDS011;3530;52.832;10.680;2022-12-07T01:12:12;7.95;;;6.88;;
6979;SDS011;3530;52.832;10.680;2022-12-07T01:14:58;9.93;;;7.10;;
6979;SDS011;3530;52.832;10.680;2022-12-07T01:17:43;15.02;;;8.90;;
6979;SDS011;3530;52.832;10.680;2022-12-07T01:20:29;9.32;;;6.75;;
6979;SDS011;3530;52.832;10.680;2022-12-07T01:23:15;12.52;;;8.63;;
6979;SDS011;3530;52.832;10.680;2022-12-07T01:26:02;11.15;;;8.07;;
6979;SDS011;3530;52.832;10.680;2022-12-07T01:28:49;12.23;;;8.10;;
6979;SDS011;3530;52.832;10.680;2022-12-07T01:31:35;8.57;;;6.85;;
6979;SDS011;3530;52.832;10.680;2022-12-07T01:34:21;9.25;;;6.80;;
6979;SDS011;3530;52.832;10.680;2022-12-07T01:37:07;9.65;;;6.43;;
6979;SDS011;3530;52.832;10.680;2022-12-07T01:39:52;8.60;;;6.38;;
6979;SDS011;3530;52.832;10.680;2022-12-07T01:42:38;12.98;;;8.38;;
6979;SDS011;3530;52.832;10.680;2022-12-07T01:45:37;9.93;;;7.78;;
6979;SDS011;3530;52.832;10.680;2022-12-07T01:48:25;9.13;;;6.63;;
6979;SDS011;3530;52.832;10.680;2022-12-07T01:51:12;6.80;;;6.10;;
6979;SDS011;3530;52.832;10.680;2022-12-07T01:53:59;10.15;;;6.40;;
6979;SDS011;3530;52.832;10.680;2022-12-07T01:56:47;5.30;;;4.72;;
6979;SDS011;3530;52.832;10.680;2022-12-07T01:59:35;6.63;;;5.22;;
6979;SDS011;3530;52.832;10.680;2022-12-07T02:02:26;8.98;;;7.00;;
6979;SDS011;3530;52.832;10.680;2022-12-07T02:05:14;8.70;;;6.32;;
6979;SDS011;3530;52.832;10.680;2022-12-07T02:07:59;9.55;;;6.28;;
6979;SDS011;3530;52.832;10.680;2022-12-07T02:10:45;9.88;;;5.93;;
6979;SDS011;3530;52.832;10.680;2022-12-07T02:13:32;11.32;;;8.18;;
6979;SDS011;3530;52.832;10.680;2022-12-07T02:16:30;6.82;;;6.13;;
6979;SDS011;3530;52.832;10.680;2022-12-07T02:19:35;8.27;;;6.53;;
6979;SDS011;3530;52.832;10.680;2022-12-07T02:28:35;10.75;;;6.65;;
6979;SDS011;3530;52.832;10.680;2022-12-07T02:31:22;5.43;;;4.95;;
6979;SDS011;3530;52.832;10.680;2022-12-07T02:34:32;12.52;;;7.28;;
6979;SDS011;3530;52.832;10.680;2022-12-07T02:37:36;8.32;;;6.15;;
6979;SDS011;3530;52.832;10.680;2022-12-07T02:43:24;8.93;;;6.32;;
6979;SDS011;3530;52.832;10.680;2022-12-07T02:46:13;6.25;;;5.35;;
6979;SDS011;3530;52.832;10.680;2022-12-07T02:49:00;10.30;;;7.55;;
6979;SDS011;3530;52.832;10.680;2022-12-07T02:51:46;10.18;;;7.55;;
6979;SDS011;3530;52.832;10.680;2022-12-07T02:54:32;9.52;;;7.47;;
6979;SDS011;3530;52.832;10.680;2022-12-07T02:57:25;10.95;;;6.55;;
6979;SDS011;3530;52.832;10.680;2022-12-07T03:00:33;14.48;;;9.00;;
6979;SDS011;3530;52.832;10.680;2022-12-07T03:03:22;8.15;;;5.30;;
6979;SDS011;3530;52.832;10.680;2022-12-07T03:06:10;12.82;;;8.40;;
6979;SDS011;3530;52.832;10.680;2022-12-07T03:12:09;7.70;;;6.22;;
6979;SDS011;3530;52.832;10.680;2022-12-07T03:15:02;6.13;;;5.28;;
6979;SDS011;3530;52.832;10.680;2022-12-07T03:17:51;6.00;;;5.18;;
6979;SDS011;3530;52.832;10.680;2022-12-07T03:20:39;21.05;;;8.18;;
6979;SDS011;3530;52.832;10.680;2022-12-07T03:23:26;8.85;;;5.80;;
6979;SDS011;3530;52.832;10.680;2022-12-07T03:26:13;8.90;;;6.88;;
6979;SDS011;3530;52.832;10.680;2022-12-07T03:29:03;6.78;;;5.80;;
6979;SDS011;3530;52.832;10.680;2022-12-07T03:31:57;6.10;;;5.32;;
6979;SDS011;3530;52.832;10.680;2022-12-07T03:34:49;6.88;;;5.60;;
6979;SDS011;3530;52.832;10.680;2022-12-07T03:37:43;6.75;;;4.88;;
6979;SDS011;3530;52.832;10.680;2022-12-07T03:40:49;6.38;;;5.35;;
6979;SDS011;3530;52.832;10.680;2022-12-07T03:43:42;4.90;;;4.18;;
6979;SDS011;3530;52.832;10.680;2022-12-07T03:49:36;10.80;;;6.20;;
6979;SDS011;3530;52.832;10.680;2022-12-07T03:52:28;7.50;;;4.20;;
6979;SDS011;3530;52.832;10.680;2022-12-07T03:55:18;5.70;;;4.35;;
6979;SDS011;3530;52.832;10.680;2022-12-07T03:58:12;6.75;;;4.75;;
6979;SDS011;3530;52.832;10.680;2022-12-07T04:00:59;5.53;;;4.43;;
6979;SDS011;3530;52.832;10.680;2022-12-07T04:03:45;6.78;;;4.90;;
6979;SDS011;3530;52.832;10.680;2022-12-07T04:06:31;3.47;;;3.15;;
6979;SDS011;3530;52.832;10.680;2022-12-07T04:09:16;4.30;;;3.90;;
6979;SDS011;3530;52.832;10.680;2022-12-07T04:12:02;6.78;;;4.00;;
6979;SDS011;3530;52.832;10.680;2022-12-07T04:14:48;4.07;;;3.67;;
6979;SDS011;3530;52.832;10.680;2022-12-07T04:17:34;5.57;;;3.92;;
6979;SDS011;3530;52.832;10.680;2022-12-07T04:20:19;4.97;;;3.45;;
6979;SDS011;3530;52.832;10.680;2022-12-07T04:23:05;5.85;;;3.83;;
6979;SDS011;3530;52.832;10.680;2022-12-07T04:25:51;6.03;;;4.57;;
6979;SDS011;3530;52.832;10.680;2022-12-07T04:28:36;4.60;;;4.20;;
6979;SDS011;3530;52.832;10.680;2022-12-07T04:31:22;4.65;;;4.15;;
6979;SDS011;3530;52.832;10.680;2022-12-07T04:34:08;4.55;;;3.78;;
6979;SDS011;3530;52.832;10.680;2022-12-07T04:36:54;8.65;;;4.15;;
6979;SDS011;3530;52.832;10.680;2022-12-07T04:39:40;7.55;;;3.25;;
6979;SDS011;3530;52.832;10.680;2022-12-07T04:42:25;5.40;;;4.55;;
6979;SDS011;3530;52.832;10.680;2022-12-07T04:45:11;4.78;;;4.20;;
6979;SDS011;3530;52.832;10.680;2022-12-07T04:47:57;6.00;;;4.30;;
6979;SDS011;3530;52.832;10.680;2022-12-07T04:50:42;8.02;;;4.45;;
6979;SDS011;3530;52.832;10.680;2022-12-07T04:53:28;8.88;;;4.63;;
6979;SDS011;3530;52.832;10.680;2022-12-07T04:56:14;3.03;;;2.83;;
6979;SDS011;3530;52.832;10.680;2022-12-07T04:59:00;3.95;;;3.47;;
6979;SDS011;3530;52.832;10.680;2022-12-07T05:01:46;5.03;;;3.78;;
6979;SDS011;3530;52.832;10.680;2022-12-07T05:04:32;3.42;;;3.22;;
6979;SDS011;3530;52.832;10.680;2022-12-07T05:07:18;5.95;;;4.03;;
6979;SDS011;3530;52.832;10.680;2022-12-07T05:10:04;4.30;;;3.80;;
6979;SDS011;3530;52.832;10.680;2022-12-07T05:12:50;3.90;;;3.47;;
6979;SDS011;3530;52.832;10.680;2022-12-07T05:15:36;3.25;;;2.90;;
6979;SDS011;3530;52.832;10.680;2022-12-07T05:18:21;2.58;;;2.47;;
6979;SDS011;3530;52.832;10.680;2022-12-07T05:21:07;7.38;;;3.25;;
6979;SDS011;3530;52.832;10.680;2022-12-07T05:23:53;3.80;;;3.60;;
6979;SDS011;3530;52.832;10.680;2022-12-07T05:26:38;3.08;;;2.88;;
6979;SDS011;3530;52.832;10.680;2022-12-07T05:29:24;4.05;;;3.60;;
6979;SDS011;3530;52.832;10.680;2022-12-07T05:32:10;7.50;;;2.90;;
6979;SDS011;3530;52.832;10.680;2022-12-07T05:34:55;3.45;;;3.25;;
6979;SDS011;3530;52.832;10.680;2022-12-07T05:37:41;4.70;;;3.80;;
6979;SDS011;3530;52.832;10.680;2022-12-07T05:40:27;4.78;;;3.63;;
6979;SDS011;3530;52.832;10.680;2022-12-07T05:43:12;6.38;;;4.10;;
6979;SDS011;3530;52.832;10.680;2022-12-07T05:45:58;7.68;;;4.15;;
6979;SDS011;3530;52.832;10.680;2022-12-07T05:48:44;5.55;;;3.58;;
6979;SDS011;3530;52.832;10.680;2022-12-07T05:51:30;5.00;;;4.53;;
6979;SDS011;3530;52.832;10.680;2022-12-07T05:54:15;3.30;;;3.00;;
6979;SDS011;3530;52.832;10.680;2022-12-07T05:57:01;3.92;;;3.63;;
6979;SDS011;3530;52.832;10.680;2022-12-07T05:59:47;3.50;;;3.22;;
6979;SDS011;3530;52.832;10.680;2022-12-07T06:02:32;3.80;;;3.50;;
6979;SDS011;3530;52.832;10.680;2022-12-07T06:05:18;4.70;;;3.60;;
6979;SDS011;3530;52.832;10.680;2022-12-07T06:08:04;4.30;;;3.45;;
6979;SDS011;3530;52.832;10.680;2022-12-07T06:10:49;4.05;;;3.72;;
6979;SDS011;3530;52.832;10.680;2022-12-07T06:13:55;4.22;;;3.92;;
6979;SDS011;3530;52.832;10.680;2022-12-07T06:16:41;3.92;;;3.47;;
6979;SDS011;3530;52.832;10.680;2022-12-07T06:19:26;3.83;;;3.45;;
6979;SDS011;3530;52.832;10.680;2022-12-07T06:22:12;3.45;;;3.17;;
6979;SDS011;3530;52.832;10.680;2022-12-07T06:24:58;15.35;;;7.35;;
6979;SDS011;3530;52.832;10.680;2022-12-07T06:27:44;3.80;;;3.50;;
6979;SDS011;3530;52.832;10.680;2022-12-07T06:30:33;6.70;;;3.80;;
6979;SDS011;3530;52.832;10.680;2022-12-07T06:33:18;6.57;;;5.95;;
6979;SDS011;3530;52.832;10.680;2022-12-07T06:36:04;9.07;;;5.07;;
6979;SDS011;3530;52.832;10.680;2022-12-07T06:38:50;13.43;;;4.97;;
6979;SDS011;3530;52.832;10.680;2022-12-07T06:41:36;6.15;;;3.92;;
6979;SDS011;3530;52.832;10.680;2022-12-07T06:44:23;7.35;;;4.20;;
6979;SDS011;3530;52.832;10.680;2022-12-07T06:47:09;5.47;;;3.90;;
6979;SDS011;3530;52.832;10.680;2022-12-07T06:49:55;5.90;;;3.45;;
6979;SDS011;3530;52.832;10.680;2022-12-07T06:52:40;4.03;;;3.70;;
6979;SDS011;3530;52.832;10.680;2022-12-07T06:55:26;8.30;;;4.80;;
6979;SDS011;3530;52.832;10.680;2022-12-07T06:58:11;5.28;;;3.60;;
6979;SDS011;3530;52.832;10.680;2022-12-07T07:00:57;3.25;;;2.95;;
6979;SDS011;3530;52.832;10.680;2022-12-07T07:03:43;3.55;;;3.13;;
6979;SDS011;3530;52.832;10.680;2022-12-07T07:06:29;2.92;;;2.83;;
6979;SDS011;3530;52.832;10.680;2022-12-07T07:09:15;3.88;;;3.55;;
6979;SDS011;3530;52.832;10.680;2022-12-07T07:12:01;4.90;;;3.88;;
6979;SDS011;3530;52.832;10.680;2022-12-07T07:14:47;3.22;;;2.92;;
6979;SDS011;3530;52.832;10.680;2022-12-07T07:17:32;3.60;;;3.40;;
6979;SDS011;3530;52.832;10.680;2022-12-07T07:20:18;7.82;;;3.70;;
6979;SDS011;3530;52.832;10.680;2022-12-07T07:23:04;4.07;;;3.70;;
6979;SDS011;3530;52.832;10.680;2022-12-07T07:25:50;7.45;;;3.83;;
6979;SDS011;3530;52.832;10.680;2022-12-07T07:28:36;5.53;;;4.53;;
6979;SDS011;3530;52.832;10.680;2022-12-07T07:31:21;3.00;;;2.80;;
6979;SDS011;3530;52.832;10.680;2022-12-07T07:34:07;3.35;;;3.10;;
6979;SDS011;3530;52.832;10.680;2022-12-07T07:36:53;4.57;;;3.80;;
6979;SDS011;3530;52.832;10.680;2022-12-07T07:39:38;7.35;;;3.22;;
6979;SDS011;3530;52.832;10.680;2022-12-07T07:42:24;3.25;;;2.95;;
6979;SDS011;3530;52.832;10.680;2022-12-07T07:45:10;3.50;;;3.22;;
6979;SDS011;3530;52.832;10.680;2022-12-07T07:47:55;2.83;;;2.67;;
6979;SDS011;3530;52.832;10.680;2022-12-07T07:50:41;4.68;;;3.00;;
6979;SDS011;3530;52.832;10.680;2022-12-07T07:53:27;4.00;;;3.60;;
6979;SDS011;3530;52.832;10.680;2022-12-07T07:56:12;2.88;;;2.67;;
6979;SDS011;3530;52.832;10.680;2022-12-07T07:58:58;4.13;;;2.58;;
6979;SDS011;3530;52.832;10.680;2022-12-07T08:01:44;2.67;;;2.58;;
6979;SDS011;3530;52.832;10.680;2022-12-07T08:04:29;3.13;;;2.85;;
6979;SDS011;3530;52.832;10.680;2022-12-07T08:07:15;2.83;;;2.65;;
6979;SDS011;3530;52.832;10.680;2022-12-07T08:10:01;3.95;;;3.08;;
6979;SDS011;3530;52.832;10.680;2022-12-07T08:12:46;2.92;;;2.72;;
6979;SDS011;3530;52.832;10.680;2022-12-07T08:15:50;4.32;;;3.03;;
6979;SDS011;3530;52.832;10.680;2022-12-07T08:18:37;2.75;;;2.55;;
6979;SDS011;3530;52.832;10.680;2022-12-07T08:21:23;3.42;;;3.13;;
6979;SDS011;3530;52.832;10.680;2022-12-07T08:24:08;3.00;;;2.70;;
6979;SDS011;3530;52.832;10.680;2022-12-07T08:26:54;4.25;;;3.90;;
6979;SDS011;3530;52.832;10.680;2022-12-07T08:29:40;3.65;;;3.35;;
6979;SDS011;3530;52.832;10.680;2022-12-07T08:32:26;4.30;;;3.47;;
6979;SDS011;3530;52.832;10.680;2022-12-07T08:35:12;3.17;;;2.90;;
6979;SDS011;3530;52.832;10.680;2022-12-07T08:37:58;4.35;;;3.08;;
6979;SDS011;3530;52.832;10.680;2022-12-07T08:40:44;3.42;;;3.22;;
6979;SDS011;3530;52.832;10.680;2022-12-07T08:43:29;2.85;;;2.70;;
6979;SDS011;3530;52.832;10.680;2022-12-07T08:46:19;4.05;;;3.20;;
6979;SDS011;3530;52.832;10.680;2022-12-07T08:49:09;4.55;;;4.15;;
6979;SDS011;3530;52.832;10.680;2022-12-07T08:51:57;4.50;;;3.50;;
6979;SDS011;3530;52.832;10.680;2022-12-07T08:54:43;5.68;;;3.53;;
6979;SDS011;3530;52.832;10.680;2022-12-07T08:57:29;4.65;;;3.47;;
6979;SDS011;3530;52.832;10.680;2022-12-07T09:00:15;3.45;;;3.15;;
6979;SDS011;3530;52.832;10.680;2022-12-07T09:03:02;3.88;;;3.58;;
6979;SDS011;3530;52.832;10.680;2022-12-07T09:05:47;4.25;;;3.15;;
6979;SDS011;3530;52.832;10.680;2022-12-07T09:08:35;3.55;;;3.25;;
6979;SDS011;3530;52.832;10.680;2022-12-07T09:11:22;3.88;;;3.15;;
6979;SDS011;3530;52.832;10.680;2022-12-07T09:14:08;4.00;;;3.17;;
6979;SDS011;3530;52.832;10.680;2022-12-07T09:16:54;4.43;;;3.67;;
6979;SDS011;3530;52.832;10.680;2022-12-07T09:19:39;3.38;;;3.17;;
6979;SDS011;3530;52.832;10.680;2022-12-07T09:22:30;3.30;;;3.10;;
6979;SDS011;3530;52.832;10.680;2022-12-07T09:25:16;7.80;;;3.20;;
6979;SDS011;3530;52.832;10.680;2022-12-07T09:28:01;2.85;;;2.67;;
6979;SDS011;3530;52.832;10.680;2022-12-07T09:30:48;2.67;;;2.47;;
6979;SDS011;3530;52.832;10.680;2022-12-07T09:33:34;6.38;;;3.85;;
6979;SDS011;3530;52.832;10.680;2022-12-07T09:36:19;3.58;;;3.08;;
6979;SDS011;3530;52.832;10.680;2022-12-07T09:39:05;5.18;;;3.17;;
6979;SDS011;3530;52.832;10.680;2022-12-07T09:41:51;3.00;;;2.80;;
6979;SDS011;3530;52.832;10.680;2022-12-07T09:44:36;3.42;;;3.13;;
6979;SDS011;3530;52.832;10.680;2022-12-07T09:47:25;3.22;;;3.03;;
6979;SDS011;3530;52.832;10.680;2022-12-07T09:50:13;3.83;;;3.38;;
6979;SDS011;3530;52.832;10.680;2022-12-07T09:53:08;4.03;;;2.92;;
6979;SDS011;3530;52.832;10.680;2022-12-07T09:55:55;2.92;;;2.83;;
6979;SDS011;3530;52.832;10.680;2022-12-07T09:58:41;3.67;;;3.42;;
6979;SDS011;3530;52.832;10.680;2022-12-07T10:01:29;3.78;;;3.25;;
6979;SDS011;3530;52.832;10.680;2022-12-07T10:04:17;5.80;;;3.17;;
6979;SDS011;3530;52.832;10.680;2022-12-07T10:07:04;3.15;;;2.95;;
6979;SDS011;3530;52.832;10.680;2022-12-07T10:09:50;2.67;;;2.50;;
6979;SDS011;3530;52.832;10.680;2022-12-07T10:13:37;2.65;;;2.45;;
6979;SDS011;3530;52.832;10.680;2022-12-07T10:15:54;3.28;;;3.05;;
6979;SDS011;3530;52.832;10.680;2022-12-07T10:18:43;2.97;;;2.80;;
6979;SDS011;3530;52.832;10.680;2022-12-07T10:21:29;2.78;;;2.67;;
6979;SDS011;3530;52.832;10.680;2022-12-07T10:24:15;3.72;;;3.50;;
6979;SDS011;3530;52.832;10.680;2022-12-07T10:27:00;2.83;;;2.65;;
6979;SDS011;3530;52.832;10.680;2022-12-07T10:29:50;2.80;;;2.70;;
6979;SDS011;3530;52.832;10.680;2022-12-07T10:32:36;2.80;;;2.60;;
6979;SDS011;3530;52.832;10.680;2022-12-07T10:35:29;3.20;;;3.00;;
6979;SDS011;3530;52.832;10.680;2022-12-07T10:38:16;2.88;;;2.63;;
6979;SDS011;3530;52.832;10.680;2022-12-07T10:41:02;3.47;;;3.17;;
6979;SDS011;3530;52.832;10.680;2022-12-07T10:43:51;8.90;;;5.53;;
6979;SDS011;3530;52.832;10.680;2022-12-07T10:49:46;20.98;;;8.13;;
6979;SDS011;3530;52.832;10.680;2022-12-07T10:52:58;7.85;;;5.15;;
6979;SDS011;3530;52.832;10.680;2022-12-07T11:02:15;5.03;;;3.72;;
6979;SDS011;3530;52.832;10.680;2022-12-07T11:05:27;5.00;;;3.75;;
6979;SDS011;3530;52.832;10.680;2022-12-07T11:11:27;4.65;;;3.10;;
6979;SDS011;3530;52.832;10.680;2022-12-07T11:20:54;2.92;;;2.83;;
6979;SDS011;3530;52.832;10.680;2022-12-07T11:23:57;2.50;;;2.40;;
6979;SDS011;3530;52.832;10.680;2022-12-07T11:26:52;3.03;;;2.83;;
6979;SDS011;3530;52.832;10.680;2022-12-07T11:29:48;3.58;;;3.28;;
6979;SDS011;3530;52.832;10.680;2022-12-07T11:38:36;4.00;;;3.20;;
6979;SDS011;3530;52.832;10.680;2022-12-07T11:41:28;2.80;;;2.60;;
6979;SDS011;3530;52.832;10.680;2022-12-07T11:50:36;2.80;;;2.60;;
6979;SDS011;3530;52.832;10.680;2022-12-07T11:53:47;4.07;;;2.58;;
6979;SDS011;3530;52.832;10.680;2022-12-07T11:56:36;3.22;;;2.30;;
6979;SDS011;3530;52.832;10.680;2022-12-07T11:59:38;2.30;;;2.20;;
6979;SDS011;3530;52.832;10.680;2022-12-07T12:02:27;3.05;;;2.85;;
6979;SDS011;3530;52.832;10.680;2022-12-07T12:05:18;1.85;;;1.75;;
6979;SDS011;3530;52.832;10.680;2022-12-07T12:08:16;2.30;;;2.20;;
6979;SDS011;3530;52.832;10.680;2022-12-07T12:17:14;4.72;;;2.50;;
6979;SDS011;3530;52.832;10.680;2022-12-07T12:23:19;2.45;;;2.35;;
6979;SDS011;3530;52.832;10.680;2022-12-07T12:26:30;3.83;;;2.50;;
6979;SDS011;3530;52.832;10.680;2022-12-07T12:29:27;3.13;;;2.92;;
6979;SDS011;3530;52.832;10.680;2022-12-07T12:32:19;5.90;;;2.50;;
6979;SDS011;3530;52.832;10.680;2022-12-07T12:35:27;2.22;;;2.13;;
6979;SDS011;3530;52.832;10.680;2022-12-07T12:38:29;2.15;;;2.10;;
6979;SDS011;3530;52.832;10.680;2022-12-07T12:50:28;1.80;;;1.80;;
6979;SDS011;3530;52.832;10.680;2022-12-07T12:53:19;3.55;;;1.90;;
6979;SDS011;3530;52.832;10.680;2022-12-07T12:56:21;2.75;;;2.45;;
6979;SDS011;3530;52.832;10.680;2022-12-07T12:59:19;2.58;;;2.38;;
6979;SDS011;3530;52.832;10.680;2022-12-07T13:02:27;2.75;;;2.65;;
6979;SDS011;3530;52.832;10.680;2022-12-07T13:08:05;2.88;;;2.75;;
6979;SDS011;3530;52.832;10.680;2022-12-07T13:11:19;2.65;;;2.45;;
6979;SDS011;3530;52.832;10.680;2022-12-07T13:20:39;5.05;;;4.55;;
6979;SDS011;3530;52.832;10.680;2022-12-07T13:23:33;5.57;;;4.55;;
6979;SDS011;3530;52.832;10.680;2022-12-07T13:26:38;5.25;;;4.65;;
6979;SDS011;3530;52.832;10.680;2022-12-07T13:29:26;9.85;;;5.32;;
6979;SDS011;3530;52.832;10.680;2022-12-07T13:32:45;5.60;;;5.07;;
6979;SDS011;3530;52.832;10.680;2022-12-07T13:35:28;6.70;;;5.00;;
6979;SDS011;3530;52.832;10.680;2022-12-07T13:38:25;10.65;;;5.53;;
6979;SDS011;3530;52.832;10.680;2022-12-07T13:41:16;15.68;;;9.15;;
6979;SDS011;3530;52.832;10.680;2022-12-07T13:44:07;14.77;;;8.52;;
6979;SDS011;3530;52.832;10.680;2022-12-07T13:47:15;12.02;;;8.55;;
6979;SDS011;3530;52.832;10.680;2022-12-07T13:53:12;14.40;;;10.05;;
6979;SDS011;3530;52.832;10.680;2022-12-07T13:55:59;10.20;;;7.10;;
6979;SDS011;3530;52.832;10.680;2022-12-07T13:58:45;11.05;;;7.55;;
6979;SDS011;3530;52.832;10.680;2022-12-07T14:01:31;11.05;;;7.80;;
6979;SDS011;3530;52.832;10.680;2022-12-07T14:07:27;10.63;;;7.18;;
6979;SDS011;3530;52.832;10.680;2022-12-07T14:10:26;12.77;;;5.40;;
6979;SDS011;3530;52.832;10.680;2022-12-07T14:16:31;11.90;;;8.15;;
6979;SDS011;3530;52.832;10.680;2022-12-07T14:25:16;7.82;;;5.65;;
6979;SDS011;3530;52.832;10.680;2022-12-07T14:28:03;5.65;;;5.13;;
6979;SDS011;3530;52.832;10.680;2022-12-07T14:30:49;6.45;;;5.35;;
6979;SDS011;3530;52.832;10.680;2022-12-07T14:33:34;4.50;;;4.07;;
6979;SDS011;3530;52.832;10.680;2022-12-07T14:36:20;4.97;;;4.47;;
6979;SDS011;3530;52.832;10.680;2022-12-07T14:39:06;4.78;;;4.38;;
6979;SDS011;3530;52.832;10.680;2022-12-07T14:41:51;4.70;;;4.30;;
6979;SDS011;3530;52.832;10.680;2022-12-07T14:44:37;4.90;;;3.80;;
6979;SDS011;3530;52.832;10.680;2022-12-07T14:47:23;5.38;;;4.28;;
6979;SDS011;3530;52.832;10.680;2022-12-07T14:50:11;4.43;;;4.13;;
6979;SDS011;3530;52.832;10.680;2022-12-07T14:53:02;5.32;;;4.20;;
6979;SDS011;3530;52.832;10.680;2022-12-07T14:55:57;4.03;;;3.72;;
6979;SDS011;3530;52.832;10.680;2022-12-07T14:58:43;6.85;;;4.20;;
6979;SDS011;3530;52.832;10.680;2022-12-07T15:01:29;5.93;;;4.00;;
6979;SDS011;3530;52.832;10.680;2022-12-07T15:04:14;4.00;;;3.70;;
6979;SDS011;3530;52.832;10.680;2022-12-07T15:07:02;4.75;;;4.30;;
6979;SDS011;3530;52.832;10.680;2022-12-07T15:09:48;10.15;;;4.00;;
6979;SDS011;3530;52.832;10.680;2022-12-07T15:12:34;7.22;;;4.68;;
6979;SDS011;3530;52.832;10.680;2022-12-07T15:15:20;13.60;;;7.20;;
6979;SDS011;3530;52.832;10.680;2022-12-07T15:18:06;8.10;;;5.60;;
6979;SDS011;3530;52.832;10.680;2022-12-07T15:20:51;6.70;;;5.25;;
6979;SDS011;3530;52.832;10.680;2022-12-07T15:23:37;7.22;;;5.65;;
6979;SDS011;3530;52.832;10.680;2022-12-07T15:26:23;8.50;;;5.63;;
6979;SDS011;3530;52.832;10.680;2022-12-07T15:29:09;7.00;;;5.57;;
6979;SDS011;3530;52.832;10.680;2022-12-07T15:31:55;6.68;;;5.32;;
6979;SDS011;3530;52.832;10.680;2022-12-07T15:34:41;5.45;;;4.93;;
6979;SDS011;3530;52.832;10.680;2022-12-07T15:37:26;4.40;;;4.03;;
6979;SDS011;3530;52.832;10.680;2022-12-07T15:40:12;4.90;;;4.40;;
6979;SDS011;3530;52.832;10.680;2022-12-07T15:42:59;6.63;;;5.05;;
6979;SDS011;3530;52.832;10.680;2022-12-07T15:45:44;6.40;;;4.47;;
6979;SDS011;3530;52.832;10.680;2022-12-07T15:48:35;3.88;;;3.58;;
6979;SDS011;3530;52.832;10.680;2022-12-07T15:51:20;4.95;;;4.45;;
6979;SDS011;3530;52.832;10.680;2022-12-07T15:54:06;4.75;;;4.32;;
6979;SDS011;3530;52.832;10.680;2022-12-07T15:56:52;6.32;;;3.80;;
6979;SDS011;3530;52.832;10.680;2022-12-07T15:59:38;4.03;;;3.70;;
6979;SDS011;3530;52.832;10.680;2022-12-07T16:02:24;5.22;;;3.30;;
6979;SDS011;3530;52.832;10.680;2022-12-07T16:05:10;3.05;;;2.85;;
6979;SDS011;3530;52.832;10.680;2022-12-07T16:07:55;3.58;;;3.38;;
6979;SDS011;3530;52.832;10.680;2022-12-07T16:10:41;3.53;;;3.25;;
6979;SDS011;3530;52.832;10.680;2022-12-07T16:13:29;4.45;;;4.05;;
6979;SDS011;3530;52.832;10.680;2022-12-07T16:16:16;3.88;;;3.58;;
6979;SDS011;3530;52.832;10.680;2022-12-07T16:19:03;4.80;;;3.67;;
6979;SDS011;3530;52.832;10.680;2022-12-07T16:21:48;4.45;;;4.05;;
6979;SDS011;3530;52.832;10.680;2022-12-07T16:24:34;4.05;;;3.70;;
6979;SDS011;3530;52.832;10.680;2022-12-07T16:27:19;4.30;;;3.40;;
6979;SDS011;3530;52.832;10.680;2022-12-07T16:30:05;4.05;;;3.75;;
6979;SDS011;3530;52.832;10.680;2022-12-07T16:32:51;4.43;;;4.13;;
6979;SDS011;3530;52.832;10.680;2022-12-07T16:35:38;3.85;;;3.65;;
6979;SDS011;3530;52.832;10.680;2022-12-07T16:38:26;6.28;;;4.10;;
6979;SDS011;3530;52.832;10.680;2022-12-07T16:41:12;5.47;;;4.53;;
6979;SDS011;3530;52.832;10.680;2022-12-07T16:44:04;5.68;;;4.70;;
6979;SDS011;3530;52.832;10.680;2022-12-07T16:46:51;6.25;;;4.53;;
6979;SDS011;3530;52.832;10.680;2022-12-07T16:49:37;5.93;;;5.03;;
6979;SDS011;3530;52.832;10.680;2022-12-07T16:52:22;7.20;;;4.93;;
6979;SDS011;3530;52.832;10.680;2022-12-07T16:55:08;10.77;;;6.53;;
6979;SDS011;3530;52.832;10.680;2022-12-07T16:57:54;5.85;;;5.28;;
6979;SDS011;3530;52.832;10.680;2022-12-07T17:00:39;8.00;;;4.78;;
6979;SDS011;3530;52.832;10.680;2022-12-07T17:03:26;5.60;;;5.07;;
6979;SDS011;3530;52.832;10.680;2022-12-07T17:06:18;5.28;;;4.63;;
6979;SDS011;3530;52.832;10.680;2022-12-07T17:09:06;6.03;;;4.60;;
6979;SDS011;3530;52.832;10.680;2022-12-07T17:11:54;5.32;;;4.45;;
6979;SDS011;3530;52.832;10.680;2022-12-07T17:14:40;5.05;;;4.35;;
6979;SDS011;3530;52.832;10.680;2022-12-07T17:18:04;6.72;;;4.97;;
6979;SDS011;3530;52.832;10.680;2022-12-07T17:20:49;5.40;;;4.57;;
6979;SDS011;3530;52.832;10.680;2022-12-07T17:23:35;8.77;;;4.50;;
6979;SDS011;3530;52.832;10.680;2022-12-07T17:26:22;6.80;;;5.80;;
6979;SDS011;3530;52.832;10.680;2022-12-07T17:29:09;4.85;;;4.45;;
6979;SDS011;3530;52.832;10.680;2022-12-07T17:31:56;4.72;;;3.85;;
6979;SDS011;3530;52.832;10.680;2022-12-07T17:34:42;7.60;;;3.80;;
6979;SDS011;3530;52.832;10.680;2022-12-07T17:37:27;4.13;;;3.85;;
6979;SDS011;3530;52.832;10.680;2022-12-07T17:40:14;7.03;;;4.60;;
6979;SDS011;3530;52.832;10.680;2022-12-07T17:43:00;5.30;;;4.10;;
6979;SDS011;3530;52.832;10.680;2022-12-07T17:45:45;14.43;;;8.32;;
6979;SDS011;3530;52.832;10.680;2022-12-07T17:48:31;8.40;;;6.32;;
6979;SDS011;3530;52.832;10.680;2022-12-07T17:51:17;12.98;;;8.98;;
6979;SDS011;3530;52.832;10.680;2022-12-07T17:54:21;10.20;;;9.27;;
6979;SDS011;3530;52.832;10.680;2022-12-07T17:57:07;6.63;;;6.03;;
6979;SDS011;3530;52.832;10.680;2022-12-07T17:59:53;4.35;;;3.97;;
6979;SDS011;3530;52.832;10.680;2022-12-07T18:02:39;5.15;;;4.75;;
6979;SDS011;3530;52.832;10.680;2022-12-07T18:05:25;20.43;;;14.03;;
6979;SDS011;3530;52.832;10.680;2022-12-07T18:08:11;6.80;;;6.18;;
6979;SDS011;3530;52.832;10.680;2022-12-07T18:10:57;8.38;;;6.20;;
6979;SDS011;3530;52.832;10.680;2022-12-07T18:13:43;8.30;;;7.27;;
6979;SDS011;3530;52.832;10.680;2022-12-07T18:16:29;5.82;;;5.22;;
6979;SDS011;3530;52.832;10.680;2022-12-07T18:19:18;5.13;;;4.55;;
6979;SDS011;3530;52.832;10.680;2022-12-07T18:22:04;5.40;;;4.72;;
6979;SDS011;3530;52.832;10.680;2022-12-07T18:24:49;10.40;;;8.15;;
6979;SDS011;3530;52.832;10.680;2022-12-07T18:27:35;16.33;;;11.15;;
6979;SDS011;3530;52.832;10.680;2022-12-07T18:30:21;11.82;;;6.95;;
6979;SDS011;3530;52.832;10.680;2022-12-07T18:33:07;5.68;;;5.18;;
6979;SDS011;3530;52.832;10.680;2022-12-07T18:35:52;7.97;;;6.78;;